Time;durP1;ratioP1;P1;durP2;ratioP2;P2;SDS_P1;SDS_P2;PMS_P1;PMS_P2;Temp;Humidity;BMP_temperature;BMP_pressure;BME280_temperature;BME280_humidity;BME280_pressure;Samples;Min_cycle;Max_cycle;Signal;HPM_P1;HPM_P2
2021/01/28 00:02:43;;;;;;;9.40;4.10;;;26.40;81.50;;;;;;6353835;22;20048;-92
2021/01/28 00:05:20;;;;;;;6.53;4.32;;;26.30;81.60;;;;;;6353782;22;20005;-91
2021/01/28 00:08:49;;;;;;;;;;;;;;;;;;;;;
2021/01/28 00:11:16;;;;;;;8.07;4.45;;;26.20;81.40;;;;;;6353478;22;20283;-90
2021/01/28 00:13:44;;;;;;;10.35;4.85;;;26.20;81.40;;;;;;6324772;22;19991;-90
2021/01/28 00:16:14;;;;;;;10.63;6.65;;;26.10;81.50;;;;;;6327445;22;19998;-89
2021/01/28 00:18:40;;;;;;;18.63;9.07;;;26.10;81.30;;;;;;6325664;22;19999;-90
2021/01/28 00:21:07;;;;;;;13.07;7.30;;;26.10;81.00;;;;;;6351245;22;19990;-88
2021/01/28 00:23:36;;;;;;;8.93;4.70;;;26.00;80.90;;;;;;6328334;22;19995;-91
2021/01/28 00:26:08;;;;;;;8.43;4.32;;;26.00;80.70;;;;;;6326388;22;19990;-90
2021/01/28 00:28:34;;;;;;;9.63;4.97;;;26.00;81.00;;;;;;6322983;22;20001;-92
2021/01/28 00:31:06;;;;;;;10.25;4.28;;;26.00;80.90;;;;;;6351858;22;19995;-92
2021/01/28 00:33:33;;;;;;;8.93;4.50;;;26.00;80.70;;;;;;6324213;22;20018;-90
2021/01/28 00:36:08;;;;;;;7.93;4.43;;;25.90;80.70;;;;;;6351423;22;20001;-93
2021/01/28 00:38:42;;;;;;;6.82;4.47;;;25.80;80.60;;;;;;6329621;22;20021;-91
2021/01/28 00:41:11;;;;;;;7.30;4.15;;;25.80;80.90;;;;;;6331027;22;20052;-90
2021/01/28 00:54:57;;;;;;;8.55;4.13;;;25.50;81.70;;;;;;6289187;22;20038;-93
2021/01/28 00:57:24;;;;;;;10.15;4.70;;;25.50;81.00;;;;;;6289123;22;20023;-90
2021/01/28 01:06:59;;;;;;;9.88;4.47;;;25.50;81.00;;;;;;6187094;23;20005;-91
2021/01/28 01:09:31;;;;;;;11.48;3.75;;;25.50;81.50;;;;;;6204230;23;19989;-92
2021/01/28 01:11:58;;;;;;;10.65;4.68;;;25.40;80.80;;;;;;6203181;23;19997;-92
2021/01/28 01:14:30;;;;;;;8.05;4.20;;;25.40;81.20;;;;;;6259102;22;19991;-92
2021/01/28 01:16:57;;;;;;;6.80;4.40;;;25.30;81.20;;;;;;6325676;22;19995;-93
2021/01/28 01:19:23;;;;;;;6.18;4.03;;;25.30;81.40;;;;;;6322976;22;19998;-92
2021/01/28 01:21:59;;;;;;;7.32;3.92;;;25.30;81.70;;;;;;6324643;22;20029;-91
2021/01/28 01:24:27;;;;;;;5.97;3.97;;;25.30;81.40;;;;;;6324567;22;19999;-93
2021/01/28 01:26:57;;;;;;;6.07;3.63;;;25.30;81.10;;;;;;6324946;22;19991;-90
2021/01/28 01:29:23;;;;;;;7.75;3.83;;;25.30;81.20;;;;;;6295499;22;20019;-91
2021/01/28 01:32:42;;;;;;;9.30;4.07;;;25.30;81.00;;;;;;6307955;22;20011;-92
2021/01/28 01:36:01;;;;;;;10.38;3.88;;;25.30;80.90;;;;;;6198220;23;20038;-91
2021/01/28 01:41:51;;;;;;;7.90;3.90;;;25.10;80.90;;;;;;6196544;23;20011;-93
2021/01/28 01:44:19;;;;;;;11.82;4.03;;;25.10;80.90;;;;;;6196629;23;20024;-87
2021/01/28 01:53:58;;;;;;;8.50;4.20;;;25.10;80.60;;;;;;6134020;23;19908;-93
2021/01/28 01:56:46;;;;;;;11.35;4.28;;;25.00;80.90;;;;;;6111383;23;20018;-90
2021/01/28 01:59:26;;;;;;;7.95;4.25;;;24.90;80.90;;;;;;6126303;23;20098;-91
2021/01/28 02:10:28;;;;;;;7.50;3.75;;;24.80;81.20;;;;;;6322412;22;20027;-92
2021/01/28 02:12:55;;;;;;;7.35;4.22;;;24.80;81.70;;;;;;6295514;22;20283;-93
2021/01/28 02:25:38;;;;;;;5.65;4.50;;;24.70;81.90;;;;;;6331874;22;20079;-92
2021/01/28 02:28:19;;;;;;;5.75;3.92;;;24.60;82.00;;;;;;6333237;22;20027;-94
2021/01/28 02:31:06;;;;;;;9.60;3.50;;;24.60;82.00;;;;;;6307840;22;20007;-92
2021/01/28 02:40:30;;;;;;;7.85;4.22;;;24.50;81.80;;;;;;6349060;22;20015;-91
2021/01/28 02:43:53;;;;;;;7.07;3.95;;;24.50;81.90;;;;;;6307650;22;20011;-93
2021/01/28 02:46:46;;;;;;;6.10;4.72;;;24.50;82.00;;;;;;6291621;22;20011;-92
2021/01/28 02:50:16;;;;;;;7.53;4.13;;;24.40;82.00;;;;;;6294299;22;19999;-90
2021/01/28 02:56:33;;;;;;;13.40;6.20;;;24.30;81.90;;;;;;6297915;22;19994;-90
2021/01/28 02:59:03;;;;;;;10.00;5.10;;;24.30;81.70;;;;;;6272535;22;19988;-91
2021/01/28 03:01:45;;;;;;;12.20;4.72;;;24.30;82.00;;;;;;6268957;22;20008;-91
2021/01/28 03:05:06;;;;;;;6.53;4.25;;;24.20;82.30;;;;;;6294939;22;20360;-90
2021/01/28 03:11:28;;;;;;;;;;;;;;;;;;;;;
2021/01/28 03:14:54;;;;;;;6.47;3.33;;;24.20;81.20;;;;;;6181319;22;20009;-90
2021/01/28 03:17:42;;;;;;;7.05;3.15;;;24.20;81.10;;;;;;6174155;23;20002;-91
2021/01/28 03:20:15;;;;;;;5.82;4.10;;;24.20;81.10;;;;;;6260476;23;20011;-91
2021/01/28 03:22:44;;;;;;;5.95;3.60;;;24.20;80.90;;;;;;6259590;23;20008;-90
2021/01/28 03:25:30;;;;;;;7.88;3.60;;;24.20;80.50;;;;;;6263543;23;20000;-91
2021/01/28 03:28:00;;;;;;;5.50;3.53;;;24.20;80.50;;;;;;6265751;23;20006;-92
2021/01/28 03:30:36;;;;;;;7.35;3.70;;;24.20;80.80;;;;;;6259184;23;20004;-90
2021/01/28 03:33:05;;;;;;;7.15;3.53;;;24.20;80.70;;;;;;6258687;23;20043;-92
2021/01/28 03:35:34;;;;;;;10.45;4.38;;;24.20;80.40;;;;;;6254522;23;20008;-91
2021/01/28 03:38:03;;;;;;;10.43;4.57;;;24.10;80.20;;;;;;6258221;23;20003;-91
2021/01/28 03:40:30;;;;;;;15.20;5.28;;;24.20;80.10;;;;;;6256995;23;20008;-90
2021/01/28 03:42:57;;;;;;;10.90;5.93;;;24.10;79.90;;;;;;6256713;23;20059;-91
2021/01/28 03:45:24;;;;;;;7.47;3.80;;;24.10;80.50;;;;;;6255968;23;20082;-93
2021/01/28 03:47:51;;;;;;;7.95;4.45;;;24.10;79.50;;;;;;6255729;23;20003;-92
2021/01/28 03:50:27;;;;;;;7.53;3.55;;;24.10;79.70;;;;;;6266016;22;20010;-94
2021/01/28 03:52:58;;;;;;;5.85;3.80;;;24.10;80.40;;;;;;6318253;22;19991;-93
2021/01/28 03:55:25;;;;;;;6.15;3.50;;;24.10;80.10;;;;;;6292185;22;19999;-91
2021/01/28 03:57:52;;;;;;;8.10;4.05;;;24.10;79.90;;;;;;6318272;22;20038;-90
2021/01/28 04:00:31;;;;;;;11.38;3.35;;;24.10;80.40;;;;;;6344082;22;20007;-91
2021/01/28 04:02:59;;;;;;;6.03;3.35;;;24.00;80.40;;;;;;6344153;22;20288;-92
2021/01/28 04:05:27;;;;;;;5.97;3.47;;;24.00;80.50;;;;;;6344275;22;20040;-93
2021/01/28 04:07:54;;;;;;;6.82;3.70;;;24.00;80.60;;;;;;6344132;22;20317;-90
2021/01/28 04:10:24;;;;;;;5.25;3.10;;;24.00;80.50;;;;;;6319658;22;20027;-92
2021/01/28 04:12:51;;;;;;;5.57;3.85;;;23.90;80.00;;;;;;6343623;22;20041;-92
2021/01/28 04:15:18;;;;;;;7.32;3.33;;;23.90;80.40;;;;;;6343988;22;20010;-91
2021/01/28 04:17:45;;;;;;;5.97;3.42;;;23.90;79.80;;;;;;6317762;22;20006;-91
2021/01/28 04:20:17;;;;;;;7.22;3.55;;;23.90;80.50;;;;;;6318889;22;19999;-93
2021/01/28 04:23:13;;;;;;;5.82;3.00;;;23.90;80.60;;;;;;6344979;22;20007;-91
2021/01/28 04:25:43;;;;;;;6.00;3.30;;;23.90;80.20;;;;;;6318551;22;19998;-92
2021/01/28 04:28:10;;;;;;;4.82;3.22;;;23.80;80.40;;;;;;6344171;22;19996;-92
2021/01/28 04:30:40;;;;;;;4.10;3.25;;;23.80;80.00;;;;;;6318862;22;19991;-93
2021/01/28 04:33:15;;;;;;;7.18;3.78;;;23.80;80.40;;;;;;6348556;22;19999;-93
2021/01/28 04:35:42;;;;;;;5.07;3.25;;;23.80;80.00;;;;;;6287400;22;20026;-91
2021/01/28 04:38:12;;;;;;;8.65;3.33;;;23.80;80.30;;;;;;6288478;22;20011;-92
2021/01/28 04:40:50;;;;;;;9.40;3.65;;;23.80;80.60;;;;;;6291790;22;20067;-90
2021/01/28 04:43:29;;;;;;;5.80;3.35;;;23.80;80.20;;;;;;6292547;22;20038;-92
2021/01/28 04:46:02;;;;;;;6.20;3.58;;;23.80;79.80;;;;;;6290972;22;20004;-91
2021/01/28 04:48:33;;;;;;;7.47;3.53;;;23.80;80.70;;;;;;6294448;22;19987;-92
2021/01/28 04:51:12;;;;;;;7.78;3.60;;;23.90;79.70;;;;;;6294726;22;20003;-93
2021/01/28 04:53:50;;;;;;;8.73;3.80;;;23.90;79.90;;;;;;6269134;22;19991;-91
2021/01/28 04:56:21;;;;;;;5.70;3.00;;;23.80;80.20;;;;;;6293450;22;20007;-91
2021/01/28 04:59:24;;;;;;;5.50;2.85;;;23.80;80.10;;;;;;6269159;22;20165;-90
2021/01/28 05:01:50;;;;;;;;;;;23.80;79.50;;;;;;6294324;22;20004;-89
2021/01/28 05:04:20;;;;;;;3.80;3.08;;;23.90;79.90;;;;;;6295193;22;20165;-89
2021/01/28 05:06:56;;;;;;;5.05;3.33;;;23.80;79.70;;;;;;6311721;22;20010;-90
2021/01/28 05:09:43;;;;;;;6.63;3.88;;;23.90;79.60;;;;;;6353926;22;19995;-92
2021/01/28 05:12:22;;;;;;;3.83;2.80;;;23.80;79.50;;;;;;6349969;22;19999;-89
2021/01/28 05:14:51;;;;;;;6.55;3.30;;;23.90;79.30;;;;;;6324826;22;19995;-90
2021/01/28 05:17:28;;;;;;;5.22;3.13;;;23.80;79.30;;;;;;6328564;22;20078;-92
2021/01/28 05:20:18;;;;;;;5.10;3.10;;;23.80;79.40;;;;;;6328994;22;19995;-89
2021/01/28 05:23:09;;;;;;;7.53;3.15;;;23.80;79.40;;;;;;6349839;22;20030;-89
2021/01/28 05:25:41;;;;;;;4.85;3.20;;;23.80;78.80;;;;;;6348126;22;19998;-90
2021/01/28 05:28:26;;;;;;;;;;;23.90;78.70;;;;;;6348880;22;20022;-92
2021/01/28 05:30:54;;;;;;;6.18;2.97;;;23.80;78.70;;;;;;6323019;22;19909;-90
2021/01/28 05:33:40;;;;;;;5.60;3.15;;;23.90;78.70;;;;;;6353790;22;19984;-91
2021/01/28 05:36:25;;;;;;;6.18;2.75;;;23.80;78.90;;;;;;6329957;22;20000;-90
2021/01/28 05:38:55;;;;;;;7.28;2.90;;;23.90;78.60;;;;;;6326475;22;19988;-91
2021/01/28 05:41:43;;;;;;;6.65;3.28;;;23.90;79.00;;;;;;6326847;22;20007;-90
2021/01/28 05:44:30;;;;;;;6.85;3.65;;;23.90;78.90;;;;;;6327822;22;20006;-89
2021/01/28 05:47:02;;;;;;;7.60;3.00;;;24.00;78.70;;;;;;6352266;22;20007;-92
2021/01/28 05:49:29;;;;;;;7.32;2.92;;;24.00;78.80;;;;;;6352194;22;19998;-90
2021/01/28 05:52:13;;;;;;;4.57;3.00;;;24.00;78.60;;;;;;6330057;22;19991;-90
2021/01/28 05:54:41;;;;;;;4.88;3.25;;;24.00;78.50;;;;;;6354602;22;20083;-90
2021/01/28 05:58:13;;;;;;;4.75;3.00;;;24.10;78.50;;;;;;6331635;22;20226;-89
2021/01/28 06:00:52;;;;;;;6.03;3.40;;;24.10;78.40;;;;;;6231646;23;20027;-94
2021/01/28 06:03:45;;;;;;;4.72;2.80;;;24.10;78.30;;;;;;6264360;23;20004;-90
2021/01/28 06:06:21;;;;;;;5.82;3.17;;;24.10;78.60;;;;;;6330038;22;20003;-90
2021/01/28 06:09:05;;;;;;;7.07;3.55;;;24.10;78.40;;;;;;6352086;22;20003;-89
2021/01/28 06:11:45;;;;;;;;;;;;;;;;;;;;;
2021/01/28 06:17:50;;;;;;;8.88;2.80;;;24.10;78.30;;;;;;6309488;22;20010;-91
2021/01/28 06:20:45;;;;;;;6.80;2.67;;;24.10;78.00;;;;;;6352388;22;20002;-90
2021/01/28 06:23:32;;;;;;;7.07;3.47;;;24.10;77.80;;;;;;6327703;22;20285;-90
2021/01/28 06:26:01;;;;;;;5.15;3.30;;;24.20;78.40;;;;;;6351558;22;20038;-90
2021/01/28 06:29:05;;;;;;;4.75;2.85;;;24.10;78.40;;;;;;6297955;22;19996;-91
2021/01/28 06:32:09;;;;;;;4.20;2.83;;;24.20;78.70;;;;;;6300115;22;20302;-90
2021/01/28 06:35:09;;;;;;;6.50;3.00;;;24.20;78.90;;;;;;6300214;22;19997;-90
2021/01/28 06:38:20;;;;;;;4.97;2.78;;;24.20;78.40;;;;;;6351964;22;20019;-90
2021/01/28 06:41:05;;;;;;;7.28;3.88;;;24.20;78.40;;;;;;6351854;22;20002;-90
2021/01/28 06:43:43;;;;;;;6.63;4.70;;;24.30;78.60;;;;;;6351549;22;20027;-90
2021/01/28 06:46:30;;;;;;;6.43;4.53;;;24.20;78.50;;;;;;6351994;22;20041;-92
2021/01/28 06:49:17;;;;;;;7.88;4.57;;;24.20;78.60;;;;;;6326482;22;20000;-91
2021/01/28 06:51:59;;;;;;;6.18;3.58;;;24.20;78.60;;;;;;6351395;22;20018;-89
2021/01/28 06:54:53;;;;;;;4.00;2.90;;;24.20;78.50;;;;;;6295620;22;20003;-91
2021/01/28 06:57:54;;;;;;;5.68;3.35;;;24.20;78.90;;;;;;6347623;22;20003;-88
2021/01/28 07:00:44;;;;;;;7.15;3.20;;;24.20;78.60;;;;;;6321874;22;20017;-91
2021/01/28 07:04:08;;;;;;;5.82;2.83;;;24.20;78.70;;;;;;6350974;22;19995;-93
2021/01/28 07:06:46;;;;;;;6.70;3.80;;;24.20;79.20;;;;;;6178280;23;20009;-91
2021/01/28 07:09:16;;;;;;;8.05;3.80;;;24.20;79.20;;;;;;6202747;23;20023;-90
2021/01/28 07:11:44;;;;;;;8.00;3.63;;;24.20;78.90;;;;;;6273958;22;20004;-89
2021/01/28 07:14:17;;;;;;;7.30;3.25;;;24.20;79.10;;;;;;6324337;22;19995;-90
2021/01/28 07:17:22;;;;;;;7.07;3.55;;;24.20;78.90;;;;;;6349202;22;20310;-90
2021/01/28 07:20:34;;;;;;;4.85;2.70;;;24.20;78.90;;;;;;6350553;22;20002;-91
2021/01/28 07:23:27;;;;;;;8.07;3.10;;;24.30;78.90;;;;;;6320255;22;20003;-92
2021/01/28 07:26:19;;;;;;;7.68;3.15;;;24.30;78.50;;;;;;6325302;22;20033;-91
2021/01/28 07:28:48;;;;;;;5.20;3.13;;;24.30;78.60;;;;;;6350000;22;19995;-90
2021/01/28 07:31:24;;;;;;;6.28;2.97;;;24.30;78.60;;;;;;6350563;22;19999;-93
2021/01/28 07:34:08;;;;;;;5.65;3.00;;;24.30;79.20;;;;;;6295672;22;20074;-92
2021/01/28 07:36:50;;;;;;;6.07;3.20;;;24.20;79.20;;;;;;6352455;22;20015;-91
2021/01/28 07:39:38;;;;;;;5.10;2.90;;;24.30;79.30;;;;;;6353519;22;20026;-91
2021/01/28 07:42:17;;;;;;;5.45;2.90;;;24.20;79.40;;;;;;6353670;22;20069;-91
2021/01/28 07:44:47;;;;;;;6.38;3.20;;;24.30;79.50;;;;;;6353341;22;20029;-90
2021/01/28 07:47:31;;;;;;;4.47;3.15;;;24.30;79.50;;;;;;6353551;22;19995;-90
2021/01/28 07:50:32;;;;;;;6.30;3.50;;;24.30;79.30;;;;;;6353606;22;20002;-90
2021/01/28 07:53:29;;;;;;;5.78;2.67;;;24.40;79.90;;;;;;6298875;22;20199;-92
2021/01/28 07:55:56;;;;;;;5.03;2.70;;;24.30;79.60;;;;;;6326647;22;20007;-90
2021/01/28 07:58:51;;;;;;;4.03;3.00;;;24.30;79.50;;;;;;6327263;22;20002;-90
2021/01/28 08:01:18;;;;;;;4.93;2.63;;;24.30;79.80;;;;;;6324182;22;20078;-90
2021/01/28 08:04:00;;;;;;;4.22;2.70;;;24.30;79.60;;;;;;6328250;22;20007;-90
2021/01/28 08:06:28;;;;;;;3.80;2.70;;;24.40;79.50;;;;;;6301294;22;20014;-89
2021/01/28 08:09:10;;;;;;;5.78;3.00;;;24.40;79.30;;;;;;6353298;22;20006;-89
2021/01/28 08:11:37;;;;;;;6.28;2.92;;;24.40;79.30;;;;;;6352570;22;19999;-90
2021/01/28 08:14:07;;;;;;;5.65;2.88;;;24.40;79.30;;;;;;6353008;22;20022;-91
2021/01/28 08:16:34;;;;;;;6.57;3.10;;;24.40;79.20;;;;;;6351537;22;19999;-90
2021/01/28 08:19:25;;;;;;;4.15;2.78;;;24.40;79.20;;;;;;6328665;22;20088;-90
2021/01/28 08:22:15;;;;;;;5.65;3.05;;;24.40;78.90;;;;;;6310237;22;20015;-93
2021/01/28 08:24:52;;;;;;;6.50;3.35;;;24.50;79.10;;;;;;6349995;22;19999;-90
2021/01/28 08:27:27;;;;;;;5.63;2.97;;;24.50;79.00;;;;;;6353058;22;20025;-91
2021/01/28 08:30:15;;;;;;;9.93;2.80;;;24.50;79.10;;;;;;6352866;22;19999;-90
2021/01/28 08:32:52;;;;;;;3.97;2.55;;;24.50;79.30;;;;;;6352953;22;20003;-90
2021/01/28 08:35:27;;;;;;;8.40;3.00;;;24.50;79.50;;;;;;6352895;22;19996;-91
2021/01/28 08:38:19;;;;;;;6.90;2.90;;;24.50;79.90;;;;;;6301134;22;20003;-92
2021/01/28 08:41:12;;;;;;;5.47;2.90;;;24.40;79.90;;;;;;6348637;22;20176;-92
2021/01/28 08:43:41;;;;;;;;;;;24.40;80.40;;;;;;6350601;22;20261;-93
2021/01/28 08:46:20;;;;;;;5.57;2.63;;;24.40;80.40;;;;;;6347754;22;19905;-92
2021/01/28 08:48:47;;;;;;;5.07;2.75;;;24.50;80.40;;;;;;6322350;22;19991;-94
2021/01/28 08:51:26;;;;;;;6.97;3.15;;;24.40;80.60;;;;;;6344708;22;20002;-93
2021/01/28 08:54:15;;;;;;;6.13;3.17;;;24.40;80.60;;;;;;6347912;22;19995;-92
2021/01/28 08:56:51;;;;;;;4.55;2.78;;;24.40;80.90;;;;;;6321394;22;20180;-93
2021/01/28 08:59:19;;;;;;;5.85;3.00;;;24.40;80.60;;;;;;6352107;22;20003;-91
2021/01/28 09:01:51;;;;;;;5.80;3.20;;;24.50;80.40;;;;;;6326415;22;19999;-90
2021/01/28 09:04:26;;;;;;;4.65;2.85;;;24.50;80.70;;;;;;6352791;22;20354;-92
2021/01/28 09:06:53;;;;;;;4.70;3.00;;;24.50;80.50;;;;;;6352628;22;20031;-90
2021/01/28 09:09:26;;;;;;;4.85;2.63;;;24.50;80.40;;;;;;6352302;22;20037;-91
2021/01/28 09:12:13;;;;;;;4.72;2.92;;;24.50;80.00;;;;;;6300596;22;19999;-90
2021/01/28 09:14:40;;;;;;;5.88;2.70;;;24.50;80.30;;;;;;6351927;22;19995;-90
2021/01/28 09:17:25;;;;;;;7.03;3.05;;;24.50;79.90;;;;;;6352636;22;19999;-89
2021/01/28 09:19:59;;;;;;;3.80;2.67;;;24.60;79.30;;;;;;6352496;22;20272;-90
2021/01/28 09:22:38;;;;;;;6.93;2.92;;;24.60;79.40;;;;;;6352352;22;19999;-88
2021/01/28 09:25:21;;;;;;;6.30;2.90;;;24.60;79.20;;;;;;6352503;22;20011;-90
2021/01/28 09:28:07;;;;;;;;;;;24.70;79.10;;;;;;6352967;22;20011;-90
2021/01/28 09:30:37;;;;;;;5.10;2.67;;;24.70;79.00;;;;;;6326577;22;19898;-90
2021/01/28 09:33:36;;;;;;;5.95;3.08;;;24.70;78.70;;;;;;6352493;22;20038;-90
2021/01/28 09:36:24;;;;;;;6.30;2.85;;;24.70;78.80;;;;;;6352387;22;20010;-91
2021/01/28 09:39:12;;;;;;;6.55;2.65;;;24.80;78.40;;;;;;6352603;22;20009;-91
2021/01/28 09:41:44;;;;;;;3.45;2.58;;;24.80;78.20;;;;;;6351840;22;20067;-92
2021/01/28 09:44:34;;;;;;;3.72;2.42;;;24.80;78.20;;;;;;6352324;22;20018;-91
2021/01/28 09:47:17;;;;;;;5.47;2.67;;;24.80;78.50;;;;;;6352105;22;20014;-91
2021/01/28 09:49:49;;;;;;;5.97;3.15;;;24.80;78.50;;;;;;6324762;22;19994;-93
2021/01/28 09:52:28;;;;;;;6.75;3.08;;;24.80;78.70;;;;;;6352422;22;19992;-91
2021/01/28 09:54:58;;;;;;;5.47;2.75;;;24.80;78.60;;;;;;6327935;22;20023;-89
2021/01/28 09:57:27;;;;;;;7.22;3.20;;;24.80;78.90;;;;;;6352158;22;20018;-90
2021/01/28 10:00:10;;;;;;;6.88;3.00;;;24.80;78.40;;;;;;6326048;22;20010;-89
2021/01/28 10:03:05;;;;;;;5.10;2.92;;;24.80;79.10;;;;;;6322777;22;19987;-90
2021/01/28 10:05:37;;;;;;;4.85;2.65;;;24.80;78.30;;;;;;6326484;22;20003;-89
2021/01/28 10:08:04;;;;;;;3.00;2.35;;;24.80;78.30;;;;;;6349017;22;20027;-92
2021/01/28 10:10:33;;;;;;;3.72;2.55;;;24.80;78.80;;;;;;6351469;22;20002;-89
2021/01/28 10:13:15;;;;;;;7.85;3.08;;;24.80;78.30;;;;;;6326508;22;20046;-91
2021/01/28 10:15:45;;;;;;;3.97;2.30;;;24.70;77.90;;;;;;6347388;22;20016;-93
2021/01/28 10:18:12;;;;;;;4.72;2.90;;;24.80;77.70;;;;;;6343507;22;20022;-94
2021/01/28 10:20:43;;;;;;;4.50;2.65;;;24.80;77.60;;;;;;6343309;22;19987;-93
2021/01/28 10:23:10;;;;;;;4.82;2.75;;;24.80;77.70;;;;;;6343476;22;20003;-92
2021/01/28 10:25:40;;;;;;;5.03;2.33;;;24.80;77.60;;;;;;6320798;22;20018;-93
2021/01/28 10:28:06;;;;;;;4.20;2.78;;;24.80;77.60;;;;;;6317646;22;20058;-92
2021/01/28 10:30:33;;;;;;;3.53;2.42;;;24.80;77.50;;;;;;6346358;22;20334;-89
2021/01/28 10:33:00;;;;;;;3.72;2.58;;;24.80;77.70;;;;;;6321811;22;19987;-92
2021/01/28 10:35:31;;;;;;;5.03;2.53;;;24.80;77.40;;;;;;6319758;22;20009;-94
2021/01/28 10:38:00;;;;;;;6.07;2.70;;;24.80;77.20;;;;;;6347676;22;20041;-94
2021/01/28 10:40:27;;;;;;;5.32;2.78;;;24.80;77.50;;;;;;6326214;22;20006;-92
2021/01/28 10:43:05;;;;;;;6.35;2.80;;;24.80;77.20;;;;;;6353692;22;20019;-95
2021/01/28 10:50:49;;;;;;;5.75;2.30;;;24.70;76.70;;;;;;6343360;22;20364;-92
2021/01/28 10:54:06;;;;;;;;;;;;;;;;;;;;;
2021/01/28 11:00:04;;;;;;;3.95;2.47;;;24.70;76.10;;;;;;6360136;22;20033;-93
2021/01/28 11:02:31;;;;;;;10.52;2.88;;;24.70;76.20;;;;;;6332368;22;20006;-94
2021/01/28 11:05:18;;;;;;;6.05;2.35;;;24.60;76.60;;;;;;6333098;22;20037;-93
2021/01/28 11:07:44;;;;;;;7.05;3.35;;;24.70;76.60;;;;;;6336705;22;19998;-91
2021/01/28 11:10:13;;;;;;;4.88;2.60;;;24.60;77.10;;;;;;6335835;22;20061;-93
2021/01/28 11:12:43;;;;;;;7.85;3.13;;;24.60;77.90;;;;;;6339899;22;19994;-93
2021/01/28 11:15:12;;;;;;;7.97;3.25;;;24.50;77.90;;;;;;6340843;22;20082;-94
2021/01/28 11:17:39;;;;;;;9.98;3.53;;;24.50;78.80;;;;;;6364060;22;20045;-93
2021/01/28 11:20:07;;;;;;;5.57;2.60;;;24.50;78.80;;;;;;6337957;22;19999;-93
2021/01/28 11:22:33;;;;;;;5.95;2.85;;;24.50;78.20;;;;;;6335769;22;19999;-94
2021/01/28 11:25:00;;;;;;;8.35;3.35;;;24.60;77.80;;;;;;6333601;22;20036;-92
2021/01/28 11:27:34;;;;;;;6.07;3.08;;;24.60;77.90;;;;;;6336440;22;20007;-91
2021/01/28 11:30:56;;;;;;;11.05;4.55;;;24.70;77.70;;;;;;6334506;22;20002;-92
2021/01/28 11:33:31;;;;;;;8.35;4.43;;;24.70;78.00;;;;;;6308293;22;20028;-92
2021/01/28 11:35:57;;;;;;;9.70;4.13;;;24.70;78.80;;;;;;6332251;22;20045;-94
2021/01/28 11:41:02;;;;;;;11.40;5.95;;;24.90;76.90;;;;;;6340092;22;20015;-93
2021/01/28 11:43:30;;;;;;;10.50;5.72;;;24.90;77.30;;;;;;6332103;22;19998;-92
2021/01/28 11:45:57;;;;;;;12.32;5.65;;;25.00;77.10;;;;;;6330919;22;19995;-92
2021/01/28 11:48:25;;;;;;;11.73;6.43;;;25.10;76.70;;;;;;6330429;22;19995;-95
2021/01/28 11:51:04;;;;;;;13.18;5.72;;;25.20;76.40;;;;;;6325359;22;20014;-94
2021/01/28 11:53:30;;;;;;;10.60;5.90;;;25.30;76.50;;;;;;6335639;22;19991;-90
2021/01/28 11:56:00;;;;;;;5.72;3.45;;;25.30;76.00;;;;;;6332595;22;20026;-92
2021/01/28 11:58:26;;;;;;;9.73;3.20;;;25.30;76.60;;;;;;6331630;22;20029;-92
2021/01/28 12:00:53;;;;;;;7.53;2.90;;;25.30;76.50;;;;;;6340196;22;20011;-94
2021/01/28 12:03:20;;;;;;;11.13;3.65;;;25.30;76.70;;;;;;6339902;22;19995;-92
2021/01/28 12:05:48;;;;;;;9.48;3.38;;;25.10;78.80;;;;;;6333250;22;20029;-94
2021/01/28 12:08:16;;;;;;;7.70;3.30;;;24.90;79.80;;;;;;6363352;22;19998;-94
2021/01/28 12:10:43;;;;;;;5.95;3.53;;;24.80;81.00;;;;;;6328529;22;19998;-92
2021/01/28 12:13:09;;;;;;;6.95;3.33;;;24.70;80.90;;;;;;6328163;22;19995;-93
2021/01/28 12:15:36;;;;;;;6.55;3.45;;;24.60;81.10;;;;;;6328555;22;19995;-93
2021/01/28 12:18:04;;;;;;;9.63;3.42;;;24.60;81.30;;;;;;6327333;22;20039;-91
2021/01/28 12:21:06;;;;;;;5.78;3.40;;;24.60;81.40;;;;;;6354650;22;19991;-96
2021/01/28 12:23:33;;;;;;;6.72;3.67;;;24.60;81.90;;;;;;6328962;22;19999;-90
2021/01/28 12:26:06;;;;;;;8.40;3.67;;;24.60;81.70;;;;;;6331761;22;19983;-93
2021/01/28 12:28:32;;;;;;;;;;;24.60;81.90;;;;;;6332743;22;19997;-91
2021/01/28 12:31:11;;;;;;;7.57;3.70;;;24.60;82.00;;;;;;6330147;22;19898;-95
2021/01/28 12:33:40;;;;;;;7.15;4.05;;;24.60;81.50;;;;;;6328557;22;20022;-91
2021/01/28 12:36:12;;;;;;;5.72;3.33;;;24.60;82.40;;;;;;6328668;22;19999;-93
2021/01/28 12:41:05;;;;;;;6.88;4.18;;;24.80;81.80;;;;;;6347165;22;20338;-93
2021/01/28 12:43:32;;;;;;;9.98;4.10;;;24.80;81.90;;;;;;6326224;22;20030;-92
2021/01/28 12:46:02;;;;;;;7.32;3.70;;;24.90;81.80;;;;;;6325706;22;19994;-93
2021/01/28 12:48:33;;;;;;;8.83;3.93;;;25.10;81.40;;;;;;6352389;22;20006;-91
2021/01/28 12:51:03;;;;;;;6.93;4.20;;;25.20;80.90;;;;;;6329395;22;20258;-90
2021/01/28 12:53:33;;;;;;;9.02;4.65;;;25.30;81.00;;;;;;6325961;22;20235;-92
2021/01/28 12:56:03;;;;;;;11.10;3.92;;;25.50;80.80;;;;;;6352439;22;19990;-90
2021/01/28 12:58:35;;;;;;;12.82;4.32;;;25.70;79.70;;;;;;6353745;22;19995;-93
2021/01/28 13:01:03;;;;;;;;;;;25.70;80.30;;;;;;6326557;22;20021;-93
2021/01/28 13:03:36;;;;;;;7.55;3.75;;;25.80;79.70;;;;;;6326721;22;19902;-94
2021/01/28 13:06:29;;;;;;;7.95;3.70;;;25.90;79.90;;;;;;6319171;22;20010;-93
2021/01/28 13:12:53;;;;;;;6.47;3.58;;;26.00;79.60;;;;;;6226295;23;20043;-94
2021/01/28 13:24:26;;;;;;;9.52;3.78;;;26.40;77.60;;;;;;6376632;22;20019;-94
2021/01/28 13:27:03;;;;;;;6.70;3.65;;;26.60;77.40;;;;;;6196348;23;20040;-92
2021/01/28 13:29:40;;;;;;;5.22;3.40;;;26.60;77.00;;;;;;6327026;22;19999;-94
2021/01/28 13:32:59;;;;;;;9.88;4.03;;;26.50;76.70;;;;;;6324483;22;20026;-91
2021/01/28 13:35:32;;;;;;;7.70;3.80;;;26.40;77.70;;;;;;6324031;22;20021;-92
2021/01/28 13:37:58;;;;;;;7.55;4.00;;;26.40;77.10;;;;;;6325298;22;20013;-90
2021/01/28 13:40:30;;;;;;;7.85;3.83;;;26.30;77.60;;;;;;6325953;22;20340;-90
2021/01/28 13:52:11;;;;;;;6.38;4.00;;;26.20;78.30;;;;;;6305980;22;20013;-92
2021/01/28 13:54:41;;;;;;;6.93;3.63;;;26.00;78.80;;;;;;6324753;22;19995;-90
2021/01/28 13:57:11;;;;;;;6.72;3.72;;;26.00;78.40;;;;;;6356627;22;20042;-91
2021/01/28 13:59:38;;;;;;;10.68;3.70;;;26.00;79.00;;;;;;6299967;22;19999;-89
2021/01/28 14:02:06;;;;;;;5.75;3.00;;;26.10;78.70;;;;;;6330303;22;19995;-89
2021/01/28 14:05:26;;;;;;;5.93;3.53;;;26.10;78.90;;;;;;6356018;22;20061;-91
2021/01/28 14:07:57;;;;;;;10.00;4.38;;;26.10;78.30;;;;;;6277592;22;19995;-91
2021/01/28 14:10:30;;;;;;;7.40;3.60;;;26.20;78.80;;;;;;6328451;22;19995;-88
2021/01/28 14:12:57;;;;;;;5.63;3.80;;;26.50;77.90;;;;;;6303995;22;20029;-88
2021/01/28 14:15:28;;;;;;;8.50;4.07;;;27.00;76.70;;;;;;6333636;22;19998;-91
2021/01/28 14:18:38;;;;;;;8.98;3.63;;;27.20;75.60;;;;;;6327464;22;20014;-92
2021/01/28 14:21:06;;;;;;;6.40;3.38;;;27.30;74.80;;;;;;6229084;22;20000;-90
2021/01/28 14:26:46;;;;;;;8.25;4.05;;;27.30;74.80;;;;;;6331367;22;20880;-90
2021/01/28 14:29:26;;;;;;;8.95;4.03;;;27.40;73.80;;;;;;6350113;22;20014;-90
2021/01/28 14:31:59;;;;;;;6.40;4.05;;;27.90;73.20;;;;;;6330205;22;20018;-88
2021/01/28 14:34:28;;;;;;;8.98;3.78;;;28.20;70.80;;;;;;6359128;22;20011;-90
2021/01/28 14:37:16;;;;;;;7.32;3.63;;;28.30;71.20;;;;;;6328119;22;20096;-90
2021/01/28 14:39:43;;;;;;;7.43;3.83;;;28.10;69.80;;;;;;6328372;22;20026;-89
2021/01/28 14:42:27;;;;;;;9.23;4.00;;;28.20;71.50;;;;;;6327007;22;19999;-90
2021/01/28 14:44:56;;;;;;;7.05;3.58;;;28.20;69.70;;;;;;6326327;22;20002;-90
2021/01/28 14:47:23;;;;;;;5.70;3.58;;;28.10;69.20;;;;;;6299540;22;19999;-90
2021/01/28 14:49:55;;;;;;;9.52;3.75;;;28.10;70.70;;;;;;6325361;22;20003;-89
2021/01/28 14:52:22;;;;;;;8.52;3.83;;;28.00;70.80;;;;;;6330394;22;20024;-90
2021/01/28 14:55:12;;;;;;;5.80;3.47;;;28.00;71.10;;;;;;6329478;22;20026;-92
2021/01/28 14:57:39;;;;;;;6.32;3.97;;;28.00;71.50;;;;;;6261490;22;20159;-91
2021/01/28 15:00:07;;;;;;;7.47;3.92;;;28.40;71.40;;;;;;6288731;22;20284;-90
2021/01/28 15:02:34;;;;;;;11.48;4.10;;;28.40;69.90;;;;;;6262509;22;20196;-90
2021/01/28 15:05:47;;;;;;;7.65;3.88;;;28.50;69.30;;;;;;6271275;22;20015;-89
2021/01/28 15:08:29;;;;;;;8.55;3.72;;;28.40;70.10;;;;;;6295840;22;20011;-92
2021/01/28 15:16:32;;;;;;;6.43;3.72;;;29.20;68.50;;;;;;6338394;22;20007;-90
2021/01/28 15:19:09;;;;;;;6.85;3.70;;;29.70;67.30;;;;;;6334030;22;19991;-90
2021/01/28 15:21:36;;;;;;;5.43;3.50;;;29.80;67.70;;;;;;6355911;22;19994;-92
2021/01/28 15:24:07;;;;;;;8.68;3.88;;;29.50;65.20;;;;;;6354262;22;20063;-92
2021/01/28 15:26:33;;;;;;;7.47;4.00;;;29.50;66.40;;;;;;6355138;22;19991;-90
2021/01/28 15:29:07;;;;;;;9.60;3.92;;;29.60;65.00;;;;;;6355346;22;19987;-88
2021/01/28 15:31:40;;;;;;;9.38;4.28;;;29.70;66.30;;;;;;6327086;22;20037;-91
2021/01/28 15:34:12;;;;;;;12.90;4.28;;;30.10;65.10;;;;;;6355802;22;19991;-89
2021/01/28 15:36:48;;;;;;;;;;;29.90;65.30;;;;;;6328957;22;19998;-92